aviador You're here:

KGNB Decoded Metar

in
Report Time2018-05-26 17:10:00
UTC Time2018-05-26 17:21:30
Flight Rules vfr VFR
WindCalm
Visibility9999 m
Phenomena:N/A
Clouds:N/A
Expected CloudBase > 9,600 ft AGL from Temp-Dew spread
CeilingNone
Temp20°C
Dew Point-4°C (20% RH)
AAT17.5°C
QNH1022 hPa
Raw Report
METAR KGNB 261710Z AUTO 00000KT 10SM CLR 20/M04 A3017 RMK AO2 T02011042=

Extra information for KGNB:More info

Social comments